Time;durP1;ratioP1;P1;durP2;ratioP2;P2;SDS_P1;SDS_P2;PMS_P1;PMS_P2;Temp;Humidity;BMP_temperature;BMP_pressure;BME280_temperature;BME280_humidity;BME280_pressure;Samples;Min_cycle;Max_cycle;Signal;HPM_P1;HPM_P2
2023/04/18 00:00:22;;;;;;;13.90;10.13;;;12.70;98.90;;;;;;5056333;28;20044;-63
2023/04/18 00:02:52;;;;;;;13.52;10.10;;;12.70;98.80;;;;;;5056290;28;20124;-63
2023/04/18 00:05:18;;;;;;;13.65;9.80;;;12.70;98.90;;;;;;5055997;28;20040;-63
2023/04/18 00:07:44;;;;;;;13.65;9.50;;;12.60;98.90;;;;;;5056088;28;20025;-63
2023/04/18 00:10:10;;;;;;;11.68;9.55;;;12.70;99.20;;;;;;5055709;28;20025;-63
2023/04/18 00:12:35;;;;;;;11.90;9.00;;;12.70;99.10;;;;;;5056206;28;20110;-63
2023/04/18 00:15:03;;;;;;;11.35;9.15;;;12.70;99.10;;;;;;5055580;28;20031;-63
2023/04/18 00:17:30;;;;;;;11.15;9.30;;;12.60;99.10;;;;;;5055908;28;20033;-63
2023/04/18 00:19:57;;;;;;;9.73;8.70;;;12.60;99.20;;;;;;5055486;28;20112;-63
2023/04/18 00:22:24;;;;;;;15.00;9.98;;;12.60;99.40;;;;;;5055892;28;20082;-63
2023/04/18 00:24:50;;;;;;;12.13;8.77;;;12.60;99.50;;;;;;5055543;28;20025;-63
2023/04/18 00:27:20;;;;;;;10.88;9.02;;;12.60;99.60;;;;;;5055048;28;20021;-63
2023/04/18 00:29:46;;;;;;;13.02;9.50;;;12.60;99.70;;;;;;5055613;28;20059;-62
2023/04/18 00:32:12;;;;;;;10.43;8.48;;;12.60;99.90;;;;;;5055192;28;20378;-63
2023/04/18 00:34:39;;;;;;;12.05;9.02;;;12.60;99.90;;;;;;5055282;28;20024;-63
2023/04/18 00:37:05;;;;;;;13.07;9.00;;;12.60;99.90;;;;;;5055090;28;20036;-63
2023/04/18 00:39:30;;;;;;;12.65;8.93;;;12.60;99.80;;;;;;5055286;28;20377;-63
2023/04/18 00:41:56;;;;;;;11.93;8.90;;;12.60;99.80;;;;;;5055033;28;20029;-66
2023/04/18 00:44:22;;;;;;;10.90;8.20;;;12.60;99.90;;;;;;5055448;28;20077;-63
2023/04/18 00:46:47;;;;;;;10.95;8.45;;;12.60;99.90;;;;;;5055856;28;20482;-63
2023/04/18 00:49:13;;;;;;;10.65;8.38;;;12.60;99.90;;;;;;5054842;28;20127;-63
2023/04/18 00:51:39;;;;;;;9.07;7.68;;;12.60;99.90;;;;;;5055316;28;20110;-63
2023/04/18 00:54:06;;;;;;;12.35;7.25;;;12.60;99.90;;;;;;5054412;28;20378;-63
2023/04/18 00:56:33;;;;;;;11.65;7.90;;;12.60;99.90;;;;;;5054996;28;20040;-63
2023/04/18 00:58:59;;;;;;;10.82;7.60;;;12.60;99.90;;;;;;5054836;28;20033;-63
2023/04/18 01:01:25;;;;;;;8.93;7.22;;;12.60;99.90;;;;;;5055128;28;20032;-63
2023/04/18 01:03:50;;;;;;;9.55;7.38;;;12.50;99.90;;;;;;5055163;28;20032;-62
2023/04/18 01:06:16;;;;;;;10.25;7.30;;;12.50;99.90;;;;;;5054690;28;20027;-63
2023/04/18 01:08:43;;;;;;;10.07;7.15;;;12.50;99.90;;;;;;5054850;28;20082;-62
2023/04/18 01:11:09;;;;;;;10.50;7.53;;;12.50;99.90;;;;;;5055635;28;20500;-63
2023/04/18 01:13:35;;;;;;;11.65;8.23;;;12.50;99.90;;;;;;5057250;28;20025;-63
2023/04/18 01:16:00;;;;;;;8.45;6.88;;;12.50;99.90;;;;;;5057052;28;20482;-64
2023/04/18 01:18:26;;;;;;;8.95;6.82;;;12.50;99.90;;;;;;5057652;28;20381;-62
2023/04/18 01:20:53;;;;;;;9.52;7.05;;;12.50;99.90;;;;;;5055721;28;20052;-62
2023/04/18 01:23:20;;;;;;;9.13;6.82;;;12.50;99.90;;;;;;5054319;28;20090;-63
2023/04/18 01:25:48;;;;;;;8.55;6.38;;;12.50;99.90;;;;;;5054760;28;20021;-63
2023/04/18 01:28:14;;;;;;;10.88;6.85;;;12.50;99.90;;;;;;5054210;28;20032;-63
2023/04/18 01:30:40;;;;;;;7.93;6.40;;;12.50;99.90;;;;;;5054776;28;20033;-63
2023/04/18 01:33:05;;;;;;;8.68;6.80;;;12.40;99.90;;;;;;5054198;28;20048;-63
2023/04/18 01:35:32;;;;;;;8.82;6.53;;;12.40;99.90;;;;;;5054628;28;20029;-63
2023/04/18 01:37:58;;;;;;;7.68;5.95;;;12.40;99.90;;;;;;5054233;28;20033;-62
2023/04/18 01:40:24;;;;;;;7.30;5.88;;;12.40;99.90;;;;;;5054020;28;20103;-62
2023/04/18 01:42:50;;;;;;;6.80;5.53;;;12.40;99.90;;;;;;5054012;28;20052;-61
2023/04/18 01:45:18;;;;;;;7.45;5.70;;;12.40;99.90;;;;;;5052230;28;20519;-62
2023/04/18 01:47:43;;;;;;;8.02;5.97;;;12.40;99.90;;;;;;5053916;28;20377;-61
2023/04/18 01:50:09;;;;;;;6.82;5.40;;;12.40;99.90;;;;;;5053773;28;20033;-62
2023/04/18 01:52:35;;;;;;;6.60;5.60;;;12.40;99.90;;;;;;5053887;28;20029;-61
2023/04/18 01:55:01;;;;;;;8.90;5.75;;;12.40;99.90;;;;;;5053498;28;20465;-61
2023/04/18 01:57:27;;;;;;;7.28;5.47;;;12.40;99.90;;;;;;5053627;28;20029;-61
2023/04/18 01:59:53;;;;;;;7.65;5.65;;;12.40;99.90;;;;;;5053983;28;20033;-61
2023/04/18 02:02:19;;;;;;;6.07;5.10;;;12.40;99.90;;;;;;5053605;28;20025;-61
2023/04/18 02:04:44;;;;;;;7.75;5.47;;;12.40;99.90;;;;;;5053659;28;20466;-61
2023/04/18 02:07:10;;;;;;;5.72;4.30;;;12.40;99.90;;;;;;5052913;28;20047;-61
2023/04/18 02:09:35;;;;;;;9.07;4.90;;;12.40;99.90;;;;;;5053754;28;20021;-63
2023/04/18 02:12:02;;;;;;;6.47;4.53;;;12.40;99.90;;;;;;5053846;28;20111;-62
2023/04/18 02:14:30;;;;;;;8.13;5.05;;;12.40;99.90;;;;;;5053368;28;20029;-61
2023/04/18 02:16:56;;;;;;;5.85;4.70;;;12.40;99.90;;;;;;5053821;28;20055;-62
2023/04/18 02:19:23;;;;;;;7.13;5.05;;;12.40;99.90;;;;;;5053259;28;20064;-62
2023/04/18 02:21:49;;;;;;;6.55;4.45;;;12.40;99.90;;;;;;5053513;28;20461;-62
2023/04/18 02:24:15;;;;;;;5.50;4.47;;;12.30;99.90;;;;;;5053203;28;20028;-62
2023/04/18 02:26:40;;;;;;;6.07;4.70;;;12.30;99.90;;;;;;5053558;28;20024;-62
2023/04/18 02:29:06;;;;;;;5.57;4.80;;;12.30;99.90;;;;;;5052833;28;20056;-62
2023/04/18 02:31:32;;;;;;;7.45;4.80;;;12.30;99.90;;;;;;5053523;28;20029;-62
2023/04/18 02:33:58;;;;;;;5.43;4.03;;;12.30;99.90;;;;;;5053022;28;20057;-62
2023/04/18 02:36:26;;;;;;;6.18;4.20;;;12.30;99.90;;;;;;5052874;28;20048;-62
2023/04/18 02:38:53;;;;;;;7.03;4.85;;;12.30;99.90;;;;;;5053207;28;20167;-62
2023/04/18 02:41:18;;;;;;;5.18;3.97;;;12.30;99.90;;;;;;5053131;28;20112;-62
2023/04/18 02:43:44;;;;;;;5.20;4.45;;;12.30;99.90;;;;;;5052843;28;20143;-62
2023/04/18 02:46:10;;;;;;;6.07;4.35;;;12.30;99.90;;;;;;5052941;28;20040;-62
2023/04/18 02:48:36;;;;;;;5.63;4.22;;;12.30;99.90;;;;;;5053070;28;20527;-62
2023/04/18 02:51:03;;;;;;;4.60;4.05;;;12.30;99.90;;;;;;5052950;28;20025;-62
2023/04/18 02:53:29;;;;;;;5.53;4.47;;;12.30;99.90;;;;;;5052672;28;20033;-62
2023/04/18 02:55:54;;;;;;;5.07;3.95;;;12.30;99.90;;;;;;5053024;28;20115;-62
2023/04/18 02:58:20;;;;;;;4.63;4.07;;;12.30;99.90;;;;;;5052610;28;20082;-62
2023/04/18 03:00:46;;;;;;;4.53;3.65;;;12.30;99.90;;;;;;5052959;28;20466;-62
2023/04/18 03:03:11;;;;;;;4.18;3.25;;;12.30;99.90;;;;;;5052505;28;20470;-63
2023/04/18 03:05:38;;;;;;;3.42;3.10;;;12.30;99.90;;;;;;5052810;28;20485;-62
2023/04/18 03:08:04;;;;;;;4.38;2.88;;;12.30;99.90;;;;;;5051680;28;20432;-62
2023/04/18 03:10:30;;;;;;;3.53;3.22;;;12.20;99.90;;;;;;5052171;28;20037;-62
2023/04/18 03:12:56;;;;;;;4.40;3.30;;;12.20;99.90;;;;;;5052586;28;20381;-62
2023/04/18 03:15:21;;;;;;;3.40;3.10;;;12.20;99.90;;;;;;5052659;28;20488;-62
2023/04/18 03:17:47;;;;;;;3.88;3.28;;;12.20;99.90;;;;;;5051938;28;20029;-62
2023/04/18 03:20:13;;;;;;;3.17;2.78;;;12.20;99.90;;;;;;5052153;28;20167;-62
2023/04/18 03:22:39;;;;;;;4.43;3.33;;;12.20;99.90;;;;;;5052670;28;20525;-62
2023/04/18 03:25:05;;;;;;;4.57;3.90;;;12.20;99.90;;;;;;5052617;28;20032;-62
2023/04/18 03:27:31;;;;;;;3.63;3.03;;;12.20;99.90;;;;;;5052100;28;20044;-62
2023/04/18 03:29:57;;;;;;;3.85;3.35;;;12.20;99.90;;;;;;5052828;28;20029;-62
2023/04/18 03:32:22;;;;;;;5.20;3.42;;;12.20;99.90;;;;;;5051858;28;20033;-62
2023/04/18 03:34:48;;;;;;;3.60;3.30;;;12.20;99.90;;;;;;5052356;28;20029;-62
2023/04/18 03:37:14;;;;;;;4.82;3.72;;;12.20;99.90;;;;;;5052164;28;20474;-63
2023/04/18 03:39:39;;;;;;;5.47;3.95;;;12.20;99.90;;;;;;5052420;28;20029;-62
2023/04/18 03:42:05;;;;;;;4.95;3.38;;;12.20;99.90;;;;;;5052473;28;20083;-62
2023/04/18 03:44:30;;;;;;;4.68;3.40;;;12.20;99.90;;;;;;5051617;28;20276;-62
2023/04/18 03:46:56;;;;;;;4.93;3.63;;;12.20;99.90;;;;;;5052123;28;20025;-62
2023/04/18 03:49:22;;;;;;;5.50;3.42;;;12.20;99.90;;;;;;5052018;28;20373;-62
2023/04/18 03:51:48;;;;;;;5.38;3.72;;;12.10;99.90;;;;;;5052419;28;20064;-62
2023/04/18 03:54:14;;;;;;;4.00;3.35;;;12.20;99.90;;;;;;5052003;28;20589;-62
2023/04/18 03:56:40;;;;;;;5.38;3.40;;;12.10;99.90;;;;;;5052330;28;20033;-62
2023/04/18 03:59:06;;;;;;;4.35;3.08;;;12.10;99.90;;;;;;5052435;28;20428;-62
2023/04/18 04:01:32;;;;;;;4.05;3.38;;;12.10;99.90;;;;;;5051940;28;20105;-62
2023/04/18 04:03:58;;;;;;;4.15;3.08;;;12.10;99.90;;;;;;5052123;28;20033;-62
2023/04/18 04:06:25;;;;;;;4.68;3.15;;;12.10;99.90;;;;;;5051544;28;20036;-62
2023/04/18 04:08:50;;;;;;;4.68;3.70;;;12.10;99.90;;;;;;5052198;28;20032;-62
2023/04/18 04:11:16;;;;;;;3.97;3.05;;;12.10;99.90;;;;;;5050622;28;20033;-62
2023/04/18 04:13:42;;;;;;;4.68;3.58;;;12.10;99.90;;;;;;5052174;28;20025;-62
2023/04/18 04:16:07;;;;;;;3.75;2.83;;;12.10;99.90;;;;;;5052163;28;20116;-62
2023/04/18 04:18:33;;;;;;;4.10;3.25;;;12.10;99.90;;;;;;5051486;28;20103;-62
2023/04/18 04:20:59;;;;;;;6.03;3.33;;;12.10;99.90;;;;;;5051837;28;20025;-62
2023/04/18 04:23:25;;;;;;;4.68;3.17;;;12.10;99.90;;;;;;5051797;28;20123;-62
2023/04/18 04:25:54;;;;;;;5.05;3.33;;;12.10;99.90;;;;;;5051530;28;20362;-63
2023/04/18 04:28:25;;;;;;;4.57;3.55;;;12.10;99.90;;;;;;5051009;28;20037;-62
2023/04/18 04:30:51;;;;;;;3.50;3.07;;;12.10;99.90;;;;;;5054148;28;20044;-62
2023/04/18 04:33:18;;;;;;;4.07;2.95;;;12.10;99.90;;;;;;5055128;28;20048;-67
2023/04/18 04:35:47;;;;;;;3.25;2.88;;;12.10;99.90;;;;;;5055280;28;20048;-62
2023/04/18 04:38:14;;;;;;;3.97;3.20;;;12.10;99.90;;;;;;5055140;28;20083;-62
2023/04/18 04:40:40;;;;;;;4.63;3.08;;;12.00;99.90;;;;;;5054516;28;20040;-62
2023/04/18 04:43:06;;;;;;;4.03;2.85;;;12.10;99.90;;;;;;5055238;28;20031;-62
2023/04/18 04:45:32;;;;;;;4.32;3.35;;;12.00;99.90;;;;;;5054666;28;20049;-62
2023/04/18 04:47:58;;;;;;;4.15;3.28;;;12.00;99.90;;;;;;5055053;28;20047;-63
2023/04/18 04:50:24;;;;;;;2.92;2.60;;;12.00;99.90;;;;;;5055044;28;20025;-63
2023/04/18 04:52:50;;;;;;;5.07;2.97;;;12.10;99.90;;;;;;5055302;28;20534;-63
2023/04/18 04:55:17;;;;;;;5.65;3.67;;;12.00;99.90;;;;;;5054887;28;20435;-63
2023/04/18 04:57:43;;;;;;;3.40;2.85;;;12.00;99.90;;;;;;5055322;28;20078;-63
2023/04/18 05:00:10;;;;;;;6.65;2.58;;;12.00;99.90;;;;;;5055179;28;20082;-62
2023/04/18 05:02:35;;;;;;;4.47;2.35;;;12.00;99.90;;;;;;5054782;28;20036;-62
2023/04/18 05:05:01;;;;;;;2.65;2.28;;;12.00;99.90;;;;;;5055100;28;20434;-62
2023/04/18 05:07:27;;;;;;;2.90;2.60;;;12.00;99.90;;;;;;5054635;28;20091;-62
2023/04/18 05:09:52;;;;;;;3.15;2.40;;;12.00;99.90;;;;;;5055154;28;20082;-62
2023/04/18 05:12:18;;;;;;;4.20;2.97;;;12.00;99.90;;;;;;5054940;28;20029;-62
2023/04/18 05:14:44;;;;;;;3.58;2.88;;;12.00;99.90;;;;;;5054369;28;20397;-62
2023/04/18 05:17:09;;;;;;;3.50;3.20;;;12.00;99.90;;;;;;5055164;28;20029;-62
2023/04/18 05:19:35;;;;;;;4.18;2.70;;;12.00;99.90;;;;;;5054429;28;20071;-62
2023/04/18 05:22:01;;;;;;;4.10;3.53;;;12.00;99.90;;;;;;5054550;28;20029;-62
2023/04/18 05:24:26;;;;;;;3.85;3.17;;;12.00;99.90;;;;;;5054077;28;20148;-63
2023/04/18 05:26:52;;;;;;;3.38;2.97;;;12.00;99.90;;;;;;5054621;28;20104;-62
2023/04/18 05:29:18;;;;;;;5.13;3.83;;;12.00;99.90;;;;;;5054548;28;20044;-62
2023/04/18 05:31:43;;;;;;;3.38;3.05;;;12.00;99.90;;;;;;5053917;28;20032;-62
2023/04/18 05:34:09;;;;;;;4.85;3.40;;;12.00;99.90;;;;;;5054896;28;20029;-62
2023/04/18 05:36:35;;;;;;;3.63;3.00;;;12.00;99.90;;;;;;5055206;28;20061;-62
2023/04/18 05:39:03;;;;;;;3.78;3.38;;;12.00;99.90;;;;;;5055207;28;20457;-62
2023/04/18 05:41:28;;;;;;;7.70;3.65;;;12.00;99.90;;;;;;5053388;28;20090;-62
2023/04/18 05:43:54;;;;;;;5.82;3.40;;;12.00;99.90;;;;;;5054216;28;20132;-62
2023/04/18 05:46:19;;;;;;;5.10;3.80;;;12.00;99.90;;;;;;5053763;28;20036;-62
2023/04/18 05:48:45;;;;;;;4.97;3.83;;;12.00;99.90;;;;;;5053880;28;20040;-62
2023/04/18 05:51:11;;;;;;;4.18;3.70;;;12.00;99.90;;;;;;5055688;28;20381;-62
2023/04/18 05:53:36;;;;;;;5.03;3.83;;;12.00;99.90;;;;;;5054425;28;20024;-62
2023/04/18 05:56:02;;;;;;;5.57;4.10;;;12.00;99.90;;;;;;5054142;28;20395;-62
2023/04/18 05:58:28;;;;;;;5.13;3.83;;;12.00;99.90;;;;;;5052025;28;20074;-63
2023/04/18 06:00:53;;;;;;;5.35;4.10;;;12.00;99.90;;;;;;5053730;28;20029;-62
2023/04/18 06:03:19;;;;;;;5.07;4.00;;;12.00;99.90;;;;;;5054210;28;20036;-62
2023/04/18 06:05:45;;;;;;;5.35;3.95;;;12.00;99.90;;;;;;5053364;28;20029;-62
2023/04/18 06:08:10;;;;;;;5.22;3.78;;;12.00;99.90;;;;;;5054033;28;20024;-63
2023/04/18 06:10:36;;;;;;;4.93;4.00;;;12.00;99.90;;;;;;5053586;28;20373;-63
2023/04/18 06:13:02;;;;;;;4.80;3.90;;;12.00;99.90;;;;;;5053697;28;20071;-63
2023/04/18 06:15:27;;;;;;;6.10;3.60;;;12.10;99.90;;;;;;5053493;28;20029;-63
2023/04/18 06:17:53;;;;;;;4.18;3.75;;;12.10;99.90;;;;;;5053909;28;20025;-63
2023/04/18 06:20:19;;;;;;;5.45;3.72;;;12.10;99.90;;;;;;5053732;28;20025;-63
2023/04/18 06:22:44;;;;;;;10.30;3.30;;;12.10;99.90;;;;;;5053749;28;20353;-63
2023/04/18 06:25:10;;;;;;;3.78;3.30;;;12.10;99.90;;;;;;5053510;28;20377;-63
2023/04/18 06:27:36;;;;;;;6.43;3.20;;;12.10;99.90;;;;;;5052732;28;20484;-63
2023/04/18 06:30:04;;;;;;;4.60;3.50;;;12.10;99.90;;;;;;5053579;28;20025;-63
2023/04/18 06:32:29;;;;;;;4.85;3.00;;;12.10;99.90;;;;;;5052790;28;20028;-63
2023/04/18 06:34:55;;;;;;;3.00;2.55;;;12.10;99.90;;;;;;5053404;28;20044;-63
2023/04/18 06:37:21;;;;;;;3.78;2.88;;;12.10;99.90;;;;;;5053083;28;20025;-62
2023/04/18 06:39:46;;;;;;;3.60;2.83;;;12.10;99.90;;;;;;5052994;28;20021;-63
2023/04/18 06:42:12;;;;;;;3.33;2.65;;;12.10;99.90;;;;;;5053515;28;20445;-63
2023/04/18 06:44:38;;;;;;;3.40;2.85;;;12.10;99.90;;;;;;5052539;28;20052;-63
2023/04/18 06:47:04;;;;;;;3.38;2.60;;;12.10;99.90;;;;;;5053187;28;20431;-63
2023/04/18 06:49:30;;;;;;;4.88;3.20;;;12.10;99.90;;;;;;5052715;28;20087;-63
2023/04/18 06:51:55;;;;;;;3.28;2.67;;;12.10;99.90;;;;;;5053085;28;20421;-63
2023/04/18 06:54:21;;;;;;;3.40;2.47;;;12.10;99.90;;;;;;5053008;28;20025;-62
2023/04/18 06:56:47;;;;;;;5.22;3.10;;;12.10;99.90;;;;;;5052306;28;20079;-63
2023/04/18 06:59:12;;;;;;;8.25;3.08;;;12.20;99.90;;;;;;5053298;28;20470;-63
2023/04/18 07:01:42;;;;;;;3.78;2.55;;;12.20;99.90;;;;;;5052653;28;20033;-63
2023/04/18 07:04:08;;;;;;;4.72;2.75;;;12.20;99.90;;;;;;5053109;28;20045;-63
2023/04/18 07:06:35;;;;;;;3.42;2.63;;;12.20;99.90;;;;;;5052442;28;20515;-63
2023/04/18 07:09:01;;;;;;;3.38;2.70;;;12.30;99.90;;;;;;5052690;28;20037;-63
2023/04/18 07:11:28;;;;;;;11.05;3.47;;;12.30;99.90;;;;;;5052887;28;20028;-63
2023/04/18 07:13:53;;;;;;;6.55;3.22;;;12.30;99.90;;;;;;5052627;28;20427;-63
2023/04/18 07:16:19;;;;;;;3.78;3.25;;;12.30;99.90;;;;;;5052953;28;20104;-63
2023/04/18 07:18:45;;;;;;;3.00;2.70;;;12.30;99.90;;;;;;5052411;28;20032;-63
2023/04/18 07:21:11;;;;;;;5.78;3.47;;;12.30;99.90;;;;;;5052389;28;20396;-62
2023/04/18 07:23:37;;;;;;;3.45;3.15;;;12.30;99.90;;;;;;5052378;28;20028;-62
2023/04/18 07:26:04;;;;;;;3.88;3.15;;;12.30;99.90;;;;;;5052642;28;20028;-62
2023/04/18 07:28:30;;;;;;;6.35;3.75;;;12.40;99.90;;;;;;5052632;28;20115;-63
2023/04/18 07:30:56;;;;;;;4.13;3.40;;;12.30;99.90;;;;;;5051450;28;20025;-62
2023/04/18 07:33:23;;;;;;;4.88;3.45;;;12.30;99.90;;;;;;5052676;28;20027;-62
2023/04/18 07:35:50;;;;;;;5.45;3.67;;;12.30;99.90;;;;;;5051955;28;20397;-63
2023/04/18 07:38:16;;;;;;;5.85;4.03;;;12.30;99.90;;;;;;5052255;28;20032;-64
2023/04/18 07:40:43;;;;;;;6.03;4.30;;;12.30;99.90;;;;;;5051897;28;20428;-63
2023/04/18 07:43:09;;;;;;;5.22;4.20;;;12.30;99.90;;;;;;5052610;28;20086;-62
2023/04/18 07:45:37;;;;;;;6.07;4.35;;;12.30;99.90;;;;;;5051763;28;20444;-63
2023/04/18 07:48:03;;;;;;;7.05;5.22;;;12.40;99.90;;;;;;5052425;28;20025;-62
2023/04/18 07:50:29;;;;;;;8.13;5.22;;;12.30;99.90;;;;;;5052398;28;20037;-62
2023/04/18 07:52:55;;;;;;;5.78;4.93;;;12.40;99.90;;;;;;5052080;28;20108;-62
2023/04/18 07:55:20;;;;;;;8.73;5.05;;;12.40;99.90;;;;;;5052074;28;20487;-63
2023/04/18 07:57:49;;;;;;;8.27;4.80;;;12.40;99.90;;;;;;5051874;28;20029;-62
2023/04/18 08:00:16;;;;;;;6.32;4.90;;;12.40;99.90;;;;;;5052563;28;20057;-62
2023/04/18 08:02:42;;;;;;;6.78;5.07;;;12.30;99.90;;;;;;5052018;28;20103;-63
2023/04/18 08:05:08;;;;;;;6.47;5.18;;;12.40;99.90;;;;;;5053784;28;20104;-63
2023/04/18 08:07:35;;;;;;;6.97;5.30;;;12.40;99.90;;;;;;5055942;28;20025;-67
2023/04/18 08:10:00;;;;;;;8.68;5.22;;;12.40;99.90;;;;;;5056046;28;20060;-63
2023/04/18 08:12:26;;;;;;;8.32;5.85;;;12.40;99.90;;;;;;5056265;28;20067;-63
2023/04/18 08:14:52;;;;;;;5.60;4.82;;;12.40;99.90;;;;;;5055605;28;20431;-62
2023/04/18 08:17:17;;;;;;;8.27;5.57;;;12.50;99.90;;;;;;5055836;28;20028;-62
2023/04/18 08:19:44;;;;;;;5.90;4.85;;;12.50;99.90;;;;;;5055374;28;20033;-63
2023/04/18 08:22:10;;;;;;;6.95;5.63;;;12.60;99.90;;;;;;5055947;28;20025;-63
2023/04/18 08:24:39;;;;;;;8.02;5.03;;;12.50;99.90;;;;;;5054746;28;20457;-63
2023/04/18 08:27:05;;;;;;;6.47;5.13;;;12.60;99.90;;;;;;5055737;28;20025;-62
2023/04/18 08:29:31;;;;;;;8.40;6.07;;;12.60;99.90;;;;;;5055755;28;20029;-62
2023/04/18 08:31:57;;;;;;;7.82;6.05;;;12.60;99.90;;;;;;5055416;28;20041;-62
2023/04/18 08:34:23;;;;;;;6.78;5.95;;;12.60;99.90;;;;;;5055569;28;20036;-63
2023/04/18 08:36:52;;;;;;;9.15;6.32;;;12.60;99.90;;;;;;5054977;28;20027;-63
2023/04/18 08:39:17;;;;;;;9.07;6.72;;;12.70;99.90;;;;;;5055040;28;20040;-62
2023/04/18 08:41:48;;;;;;;8.60;6.85;;;12.70;99.90;;;;;;5054697;28;20104;-63
2023/04/18 08:44:14;;;;;;;;;;;12.70;99.90;;;;;;5055650;28;20494;-62
2023/04/18 08:46:40;;;;;;;10.35;6.90;;;12.80;99.90;;;;;;5055043;28;19908;-61
2023/04/18 08:49:06;;;;;;;7.72;6.68;;;12.80;99.90;;;;;;5055160;28;20037;-62
2023/04/18 08:51:32;;;;;;;8.40;6.60;;;12.80;99.90;;;;;;5055371;28;20101;-61
2023/04/18 08:54:03;;;;;;;7.45;6.65;;;12.90;99.90;;;;;;5055032;28;20043;-61
2023/04/18 08:56:29;;;;;;;7.50;5.97;;;12.90;99.90;;;;;;5055488;28;20087;-61
2023/04/18 08:58:58;;;;;;;8.23;5.72;;;13.00;99.90;;;;;;5054812;28;20037;-62
2023/04/18 09:01:55;;;;;;;8.23;6.47;;;13.10;99.90;;;;;;5055128;28;20029;-63
2023/04/18 09:04:34;;;;;;;10.32;6.40;;;13.20;99.90;;;;;;5054972;28;20082;-63
2023/04/18 09:07:00;;;;;;;8.18;6.30;;;13.30;99.90;;;;;;5054693;28;20116;-63
2023/04/18 09:09:26;;;;;;;7.65;6.47;;;13.30;99.90;;;;;;5055206;28;20432;-62
2023/04/18 09:12:06;;;;;;;10.57;6.30;;;13.40;99.90;;;;;;5054752;28;20033;-62
2023/04/18 09:14:32;;;;;;;8.73;6.45;;;13.40;99.90;;;;;;5055324;28;20025;-63
2023/04/18 09:16:59;;;;;;;7.03;5.40;;;13.40;99.40;;;;;;5054692;28;20110;-62
2023/04/18 09:19:24;;;;;;;7.05;5.78;;;13.50;99.30;;;;;;5055155;28;20029;-62
2023/04/18 09:21:58;;;;;;;7.75;5.40;;;13.50;98.90;;;;;;5054246;28;20384;-63
2023/04/18 09:24:25;;;;;;;9.98;5.65;;;13.60;98.80;;;;;;5054991;28;20029;-63
2023/04/18 09:26:52;;;;;;;7.10;6.13;;;13.60;98.30;;;;;;5054383;28;20513;-62
2023/04/18 09:29:21;;;;;;;7.68;6.30;;;13.60;98.30;;;;;;5054638;28;20129;-62
2023/04/18 09:32:00;;;;;;;10.90;6.18;;;13.60;97.70;;;;;;5054449;28;20054;-63
2023/04/18 09:34:27;;;;;;;7.18;5.65;;;13.70;96.80;;;;;;5054730;28;20064;-62
2023/04/18 09:37:11;;;;;;;8.50;5.70;;;13.70;96.90;;;;;;5053811;28;20036;-62
2023/04/18 09:39:38;;;;;;;7.30;5.50;;;13.70;96.50;;;;;;5054994;28;20036;-63
2023/04/18 09:42:04;;;;;;;8.90;5.85;;;13.70;96.80;;;;;;5054198;28;20021;-62
2023/04/18 09:44:31;;;;;;;10.07;6.43;;;13.70;96.80;;;;;;5054235;28;20385;-62
2023/04/18 09:46:56;;;;;;;8.73;6.55;;;13.70;96.40;;;;;;5054036;28;20071;-62
2023/04/18 09:49:22;;;;;;;6.85;6.15;;;13.70;96.30;;;;;;5054156;28;20064;-62
2023/04/18 09:51:50;;;;;;;9.65;6.72;;;13.70;96.40;;;;;;5054012;28;20032;-63
2023/04/18 09:54:18;;;;;;;7.40;6.22;;;13.70;96.40;;;;;;5054273;28;20021;-63
2023/04/18 09:56:45;;;;;;;9.88;6.47;;;13.80;96.30;;;;;;5054022;28;20033;-64
2023/04/18 09:59:15;;;;;;;6.15;5.55;;;13.80;96.20;;;;;;5054424;28;20079;-63
2023/04/18 10:01:46;;;;;;;7.80;6.30;;;13.90;96.20;;;;;;5054253;28;20025;-63
2023/04/18 10:04:13;;;;;;;8.38;6.38;;;14.00;96.00;;;;;;5053978;28;20021;-63
2023/04/18 10:06:40;;;;;;;9.35;6.10;;;14.20;95.50;;;;;;5053784;28;20041;-63
2023/04/18 10:09:08;;;;;;;8.95;6.63;;;14.20;95.50;;;;;;5053449;28;20036;-63
2023/04/18 10:11:34;;;;;;;8.75;5.75;;;14.40;95.50;;;;;;5054146;28;20037;-63
2023/04/18 10:14:05;;;;;;;6.05;5.50;;;14.50;94.30;;;;;;5053433;28;20029;-63
2023/04/18 10:16:32;;;;;;;9.35;7.00;;;14.50;93.80;;;;;;5053947;28;20036;-63
2023/04/18 10:19:20;;;;;;;11.23;6.63;;;14.60;94.10;;;;;;5053105;28;20501;-63
2023/04/18 10:21:57;;;;;;;11.55;7.47;;;14.60;93.80;;;;;;5053096;28;20052;-63
2023/04/18 10:24:55;;;;;;;9.52;6.82;;;14.60;93.60;;;;;;5053804;28;20039;-63
2023/04/18 10:27:55;;;;;;;6.88;6.18;;;14.60;93.60;;;;;;5052937;28;20029;-62
2023/04/18 10:30:48;;;;;;;8.65;6.78;;;14.70;93.50;;;;;;5048511;28;20053;-62
2023/04/18 10:33:25;;;;;;;7.75;6.60;;;14.80;93.40;;;;;;5053636;28;20029;-62
2023/04/18 10:36:01;;;;;;;7.10;5.22;;;14.90;92.20;;;;;;5053050;28;20461;-63
2023/04/18 10:38:27;;;;;;;7.15;5.93;;;14.90;92.20;;;;;;5052026;28;20455;-62
2023/04/18 10:41:12;;;;;;;7.57;5.65;;;14.80;91.50;;;;;;5052743;28;20462;-62
2023/04/18 10:44:03;;;;;;;8.57;5.85;;;14.80;91.60;;;;;;5053197;28;20029;-63
2023/04/18 10:46:28;;;;;;;7.43;6.40;;;14.80;91.50;;;;;;5053320;28;20487;-63
2023/04/18 10:49:13;;;;;;;7.10;6.03;;;14.80;92.00;;;;;;5052442;28;20037;-63
2023/04/18 10:51:39;;;;;;;7.47;6.10;;;14.80;92.60;;;;;;5053149;28;20120;-63
2023/04/18 10:54:09;;;;;;;7.00;6.30;;;14.80;92.60;;;;;;5052623;28;20072;-63
2023/04/18 10:56:35;;;;;;;8.32;6.70;;;14.70;92.60;;;;;;5053104;28;20517;-63
2023/04/18 10:59:02;;;;;;;8.38;6.82;;;14.80;92.50;;;;;;5052424;28;20060;-63
2023/04/18 11:01:31;;;;;;;10.20;6.85;;;14.80;92.60;;;;;;5052921;28;20432;-63
2023/04/18 11:03:57;;;;;;;8.55;6.60;;;14.70;92.40;;;;;;5052577;28;20025;-63
2023/04/18 11:06:27;;;;;;;7.57;6.68;;;14.80;92.50;;;;;;5053003;28;20021;-62
2023/04/18 11:09:12;;;;;;;8.35;6.50;;;14.70;92.00;;;;;;5052447;28;20171;-63
2023/04/18 11:11:38;;;;;;;10.07;6.72;;;14.60;92.00;;;;;;5052717;28;20079;-62
2023/04/18 11:14:04;;;;;;;9.43;7.65;;;14.60;92.50;;;;;;5052426;28;20078;-62
2023/04/18 11:16:33;;;;;;;8.13;7.18;;;14.50;92.60;;;;;;5051511;28;20119;-63
2023/04/18 11:18:59;;;;;;;9.30;7.63;;;14.50;92.80;;;;;;5052294;28;20067;-63
2023/04/18 11:21:28;;;;;;;8.63;7.05;;;14.40;93.20;;;;;;5052753;28;20029;-63
2023/04/18 11:23:55;;;;;;;8.98;7.30;;;14.40;93.20;;;;;;5052275;28;20025;-63
2023/04/18 11:26:25;;;;;;;8.70;7.32;;;14.40;93.20;;;;;;5052666;28;20059;-63
2023/04/18 11:28:55;;;;;;;10.57;7.63;;;14.40;93.50;;;;;;5052447;28;20032;-63
2023/04/18 11:31:23;;;;;;;12.88;7.13;;;14.40;93.70;;;;;;5053023;28;20114;-63
2023/04/18 11:33:48;;;;;;;9.27;7.07;;;14.40;94.00;;;;;;5052507;28;20110;-63
2023/04/18 11:36:14;;;;;;;7.72;6.72;;;14.40;93.80;;;;;;5052121;28;20057;-63
2023/04/18 11:38:40;;;;;;;9.80;6.70;;;14.40;93.60;;;;;;5052580;28;20025;-63
2023/04/18 11:41:15;;;;;;;11.77;6.95;;;14.40;93.70;;;;;;5055662;28;20351;-63
2023/04/18 11:43:43;;;;;;;8.38;6.65;;;14.50;94.00;;;;;;5055772;28;20079;-63
2023/04/18 11:46:10;;;;;;;11.43;6.97;;;14.50;93.90;;;;;;5056209;28;20099;-63
2023/04/18 11:48:39;;;;;;;8.73;6.82;;;14.50;93.60;;;;;;5056342;28;20029;-63
2023/04/18 11:51:06;;;;;;;7.90;6.65;;;14.50;93.90;;;;;;5055927;28;20466;-63
2023/04/18 11:53:37;;;;;;;7.72;5.95;;;14.50;93.70;;;;;;5056455;28;20462;-63
2023/04/18 11:56:03;;;;;;;10.93;6.55;;;14.40;94.20;;;;;;5056119;28;20063;-63
2023/04/18 11:58:31;;;;;;;8.02;6.45;;;14.40;94.30;;;;;;5055969;28;20108;-63
2023/04/18 12:00:57;;;;;;;7.78;6.72;;;14.40;94.30;;;;;;5055764;28;20449;-63
2023/04/18 12:03:23;;;;;;;8.07;6.57;;;14.50;94.20;;;;;;5056314;28;20049;-63
2023/04/18 12:05:58;;;;;;;10.00;6.10;;;14.50;93.70;;;;;;5056304;28;20021;-63
2023/04/18 12:08:25;;;;;;;7.43;6.30;;;14.50;94.00;;;;;;5056147;28;20040;-63
2023/04/18 12:10:53;;;;;;;8.25;6.22;;;14.50;94.20;;;;;;5054946;28;20036;-63
2023/04/18 12:13:25;;;;;;;10.05;6.60;;;14.50;94.30;;;;;;5055666;28;20029;-63
2023/04/18 12:15:51;;;;;;;8.10;6.00;;;14.50;94.00;;;;;;5056092;28;20029;-63
2023/04/18 12:18:18;;;;;;;7.85;6.38;;;14.50;94.00;;;;;;5055628;28;20048;-63
2023/04/18 12:20:48;;;;;;;12.35;6.20;;;14.60;94.20;;;;;;5055950;28;20029;-63
2023/04/18 12:23:35;;;;;;;9.93;6.70;;;14.60;94.40;;;;;;5053984;28;20525;-63
2023/04/18 12:26:06;;;;;;;6.55;5.85;;;14.60;94.40;;;;;;5055529;28;20044;-63
2023/04/18 12:28:33;;;;;;;9.02;6.35;;;14.60;94.50;;;;;;5055583;28;20029;-63
2023/04/18 12:30:59;;;;;;;7.88;6.65;;;14.60;94.60;;;;;;5055173;28;20048;-63
2023/04/18 12:33:25;;;;;;;9.27;6.38;;;14.50;94.20;;;;;;5055695;28;20033;-63
2023/04/18 12:35:51;;;;;;;7.35;6.30;;;14.60;94.40;;;;;;5055280;28;20484;-63
2023/04/18 12:38:21;;;;;;;7.50;6.70;;;14.50;94.20;;;;;;5055318;28;20317;-63
2023/04/18 12:40:47;;;;;;;10.88;6.07;;;14.50;94.30;;;;;;5055733;28;20090;-62
2023/04/18 12:43:13;;;;;;;7.90;5.85;;;14.50;94.30;;;;;;5055162;28;20033;-62
2023/04/18 12:45:39;;;;;;;8.02;5.47;;;14.50;94.20;;;;;;5055613;28;20129;-62